sensor_id;sensor_type;location;lat;lon;timestamp;temperature;humidity
52321;DHT22;38261;54.090;13.382;2022-10-17T00:00:28;10.40;99.90
52321;DHT22;38261;54.090;13.382;2022-10-17T00:01:50;10.40;99.90
52321;DHT22;38261;54.090;13.382;2022-10-17T00:03:13;10.40;99.90
52321;DHT22;38261;54.090;13.382;2022-10-17T00:04:35;10.40;99.90
52321;DHT22;38261;54.090;13.382;2022-10-17T00:05:57;10.40;99.90
52321;DHT22;38261;54.090;13.382;2022-10-17T00:07:19;10.40;99.90
52321;DHT22;38261;54.090;13.382;2022-10-17T00:08:42;10.40;99.90
52321;DHT22;38261;54.090;13.382;2022-10-17T00:10:05;10.40;99.90
52321;DHT22;38261;54.090;13.382;2022-10-17T00:11:28;10.50;99.90
52321;DHT22;38261;54.090;13.382;2022-10-17T00:12:51;10.50;99.90
52321;DHT22;38261;54.090;13.382;2022-10-17T00:14:13;10.50;99.90
52321;DHT22;38261;54.090;13.382;2022-10-17T00:15:35;10.50;99.90
52321;DHT22;38261;54.090;13.382;2022-10-17T00:16:57;10.50;99.90
52321;DHT22;38261;54.090;13.382;2022-10-17T00:18:19;10.50;99.90
52321;DHT22;38261;54.090;13.382;2022-10-17T00:19:41;10.50;99.90
52321;DHT22;38261;54.090;13.382;2022-10-17T00:21:03;10.50;99.90
52321;DHT22;38261;54.090;13.382;2022-10-17T00:22:26;10.50;99.90
52321;DHT22;38261;54.090;13.382;2022-10-17T00:23:49;10.50;99.90
52321;DHT22;38261;54.090;13.382;2022-10-17T00:25:11;10.50;99.90
52321;DHT22;38261;54.090;13.382;2022-10-17T00:26:33;10.40;99.90
52321;DHT22;38261;54.090;13.382;2022-10-17T00:27:55;10.40;99.90
52321;DHT22;38261;54.090;13.382;2022-10-17T00:29:17;10.40;99.90
52321;DHT22;38261;54.090;13.382;2022-10-17T00:30:40;10.40;99.90
52321;DHT22;38261;54.090;13.382;2022-10-17T00:32:02;10.40;99.90
52321;DHT22;38261;54.090;13.382;2022-10-17T00:33:25;10.40;99.90
52321;DHT22;38261;54.090;13.382;2022-10-17T00:34:50;10.30;99.90
52321;DHT22;38261;54.090;13.382;2022-10-17T00:36:06;10.30;99.90
52321;DHT22;38261;54.090;13.382;2022-10-17T00:37:32;10.30;99.90
52321;DHT22;38261;54.090;13.382;2022-10-17T00:38:57;10.30;99.90
52321;DHT22;38261;54.090;13.382;2022-10-17T00:40:19;10.30;99.90
52321;DHT22;38261;54.090;13.382;2022-10-17T00:41:41;10.30;99.90
52321;DHT22;38261;54.090;13.382;2022-10-17T00:43:03;10.30;99.90
52321;DHT22;38261;54.090;13.382;2022-10-17T00:45:52;10.40;99.90
52321;DHT22;38261;54.090;13.382;2022-10-17T00:47:20;10.40;99.90
52321;DHT22;38261;54.090;13.382;2022-10-17T00:48:43;10.40;99.90
52321;DHT22;38261;54.090;13.382;2022-10-17T00:50:06;10.40;99.90
52321;DHT22;38261;54.090;13.382;2022-10-17T00:51:56;10.40;99.90
52321;DHT22;38261;54.090;13.382;2022-10-17T00:53:19;10.40;99.90
52321;DHT22;38261;54.090;13.382;2022-10-17T00:54:48;10.40;99.90
52321;DHT22;38261;54.090;13.382;2022-10-17T00:56:12;10.40;99.90
52321;DHT22;38261;54.090;13.382;2022-10-17T00:57:36;10.30;99.90
52321;DHT22;38261;54.090;13.382;2022-10-17T00:58:59;10.30;99.90
52321;DHT22;38261;54.090;13.382;2022-10-17T01:00:22;10.30;99.90
52321;DHT22;38261;54.090;13.382;2022-10-17T01:02:11;10.30;99.90
52321;DHT22;38261;54.090;13.382;2022-10-17T01:03:36;10.30;99.90
52321;DHT22;38261;54.090;13.382;2022-10-17T01:04:59;10.30;99.90
52321;DHT22;38261;54.090;13.382;2022-10-17T01:06:22;10.20;99.90
52321;DHT22;38261;54.090;13.382;2022-10-17T01:07:45;10.20;99.90
52321;DHT22;38261;54.090;13.382;2022-10-17T01:09:08;10.20;99.90
52321;DHT22;38261;54.090;13.382;2022-10-17T01:10:39;10.20;99.90
52321;DHT22;38261;54.090;13.382;2022-10-17T01:12:27;10.20;99.90
52321;DHT22;38261;54.090;13.382;2022-10-17T01:14:03;10.20;99.90
52321;DHT22;38261;54.090;13.382;2022-10-17T01:15:39;10.30;99.90
52321;DHT22;38261;54.090;13.382;2022-10-17T01:17:23;10.30;99.90
52321;DHT22;38261;54.090;13.382;2022-10-17T01:26:04;10.40;99.90
52321;DHT22;38261;54.090;13.382;2022-10-17T01:31:14;10.50;99.90
52321;DHT22;38261;54.090;13.382;2022-10-17T01:32:44;10.50;99.90
52321;DHT22;38261;54.090;13.382;2022-10-17T01:34:21;10.60;99.90
52321;DHT22;38261;54.090;13.382;2022-10-17T01:35:57;10.60;99.90
52321;DHT22;38261;54.090;13.382;2022-10-17T01:42:25;10.70;99.90
52321;DHT22;38261;54.090;13.382;2022-10-17T01:43:58;10.80;99.90
52321;DHT22;38261;54.090;13.382;2022-10-17T01:47:16;10.80;99.90
52321;DHT22;38261;54.090;13.382;2022-10-17T01:48:43;10.80;99.90
52321;DHT22;38261;54.090;13.382;2022-10-17T01:50:19;10.80;99.90
52321;DHT22;38261;54.090;13.382;2022-10-17T01:51:50;10.80;99.90
52321;DHT22;38261;54.090;13.382;2022-10-17T01:53:21;10.90;99.90
52321;DHT22;38261;54.090;13.382;2022-10-17T01:56:16;10.90;99.90
52321;DHT22;38261;54.090;13.382;2022-10-17T01:57:42;10.90;99.90
52321;DHT22;38261;54.090;13.382;2022-10-17T01:59:19;11.00;99.90
52321;DHT22;38261;54.090;13.382;2022-10-17T02:00:44;11.00;99.90
52321;DHT22;38261;54.090;13.382;2022-10-17T02:02:08;11.00;99.90
52321;DHT22;38261;54.090;13.382;2022-10-17T02:03:32;11.00;99.90
52321;DHT22;38261;54.090;13.382;2022-10-17T02:04:55;11.00;99.90
52321;DHT22;38261;54.090;13.382;2022-10-17T02:06:18;11.00;99.90
52321;DHT22;38261;54.090;13.382;2022-10-17T02:07:40;11.00;99.90
52321;DHT22;38261;54.090;13.382;2022-10-17T02:09:23;11.00;99.90
52321;DHT22;38261;54.090;13.382;2022-10-17T02:10:47;11.10;99.90
52321;DHT22;38261;54.090;13.382;2022-10-17T02:15:42;11.10;99.90
52321;DHT22;38261;54.090;13.382;2022-10-17T02:20:30;11.10;99.90
52321;DHT22;38261;54.090;13.382;2022-10-17T02:26:09;11.20;99.90
52321;DHT22;38261;54.090;13.382;2022-10-17T02:29:06;11.20;99.90
52321;DHT22;38261;54.090;13.382;2022-10-17T02:30:33;11.20;99.90
52321;DHT22;38261;54.090;13.382;2022-10-17T02:33:41;11.20;99.90
52321;DHT22;38261;54.090;13.382;2022-10-17T02:35:07;11.20;99.90
52321;DHT22;38261;54.090;13.382;2022-10-17T02:36:35;11.20;99.90
52321;DHT22;38261;54.090;13.382;2022-10-17T02:37:59;11.30;99.90
52321;DHT22;38261;54.090;13.382;2022-10-17T02:39:24;11.30;99.90
52321;DHT22;38261;54.090;13.382;2022-10-17T02:40:50;11.30;99.90
52321;DHT22;38261;54.090;13.382;2022-10-17T02:42:13;11.30;99.90
52321;DHT22;38261;54.090;13.382;2022-10-17T02:43:36;11.30;99.90
52321;DHT22;38261;54.090;13.382;2022-10-17T02:45:00;11.30;99.90
52321;DHT22;38261;54.090;13.382;2022-10-17T02:46:23;11.30;99.90
52321;DHT22;38261;54.090;13.382;2022-10-17T02:47:57;11.30;99.90
52321;DHT22;38261;54.090;13.382;2022-10-17T02:49:30;11.30;99.90
52321;DHT22;38261;54.090;13.382;2022-10-17T02:51:05;11.30;99.90
52321;DHT22;38261;54.090;13.382;2022-10-17T02:52:34;11.30;99.90
52321;DHT22;38261;54.090;13.382;2022-10-17T02:55:33;11.30;99.90
52321;DHT22;38261;54.090;13.382;2022-10-17T02:57:01;11.30;99.90
52321;DHT22;38261;54.090;13.382;2022-10-17T02:58:31;11.40;99.90
52321;DHT22;38261;54.090;13.382;2022-10-17T02:59:57;11.40;99.90
52321;DHT22;38261;54.090;13.382;2022-10-17T03:01:20;11.40;99.90
52321;DHT22;38261;54.090;13.382;2022-10-17T03:02:50;11.40;99.90
52321;DHT22;38261;54.090;13.382;2022-10-17T03:04:13;11.40;99.90
52321;DHT22;38261;54.090;13.382;2022-10-17T03:05:35;11.40;99.90
52321;DHT22;38261;54.090;13.382;2022-10-17T03:06:58;11.50;99.90
52321;DHT22;38261;54.090;13.382;2022-10-17T03:08:20;11.50;99.90
52321;DHT22;38261;54.090;13.382;2022-10-17T03:09:42;11.50;99.90
52321;DHT22;38261;54.090;13.382;2022-10-17T03:11:04;11.50;99.90
52321;DHT22;38261;54.090;13.382;2022-10-17T03:12:27;11.50;99.90
52321;DHT22;38261;54.090;13.382;2022-10-17T03:13:49;11.50;99.90
52321;DHT22;38261;54.090;13.382;2022-10-17T03:15:12;11.50;99.90
52321;DHT22;38261;54.090;13.382;2022-10-17T03:16:34;11.60;99.90
52321;DHT22;38261;54.090;13.382;2022-10-17T03:17:56;11.60;99.90
52321;DHT22;38261;54.090;13.382;2022-10-17T03:19:18;11.60;99.90
52321;DHT22;38261;54.090;13.382;2022-10-17T03:20:40;11.60;99.90
52321;DHT22;38261;54.090;13.382;2022-10-17T03:22:02;11.60;99.90
52321;DHT22;38261;54.090;13.382;2022-10-17T03:23:24;11.60;99.90
52321;DHT22;38261;54.090;13.382;2022-10-17T03:24:47;11.60;99.90
52321;DHT22;38261;54.090;13.382;2022-10-17T03:26:09;11.60;99.90
52321;DHT22;38261;54.090;13.382;2022-10-17T03:27:31;11.60;99.90
52321;DHT22;38261;54.090;13.382;2022-10-17T03:28:54;11.70;99.90
52321;DHT22;38261;54.090;13.382;2022-10-17T03:30:17;11.70;99.90
52321;DHT22;38261;54.090;13.382;2022-10-17T03:31:39;11.70;99.90
52321;DHT22;38261;54.090;13.382;2022-10-17T03:33:01;11.70;99.90
52321;DHT22;38261;54.090;13.382;2022-10-17T03:34:23;11.70;99.90
52321;DHT22;38261;54.090;13.382;2022-10-17T03:35:45;11.70;99.90
52321;DHT22;38261;54.090;13.382;2022-10-17T03:37:07;11.70;99.90
52321;DHT22;38261;54.090;13.382;2022-10-17T03:38:29;11.70;99.90
52321;DHT22;38261;54.090;13.382;2022-10-17T03:39:51;11.70;99.90
52321;DHT22;38261;54.090;13.382;2022-10-17T03:41:14;11.70;99.90
52321;DHT22;38261;54.090;13.382;2022-10-17T03:42:36;11.70;99.90
52321;DHT22;38261;54.090;13.382;2022-10-17T03:43:58;11.70;99.90
52321;DHT22;38261;54.090;13.382;2022-10-17T03:45:20;11.80;99.90
52321;DHT22;38261;54.090;13.382;2022-10-17T03:46:42;11.80;99.90
52321;DHT22;38261;54.090;13.382;2022-10-17T03:48:04;11.80;99.90
52321;DHT22;38261;54.090;13.382;2022-10-17T03:49:26;11.80;99.90
52321;DHT22;38261;54.090;13.382;2022-10-17T03:50:49;11.80;99.90
52321;DHT22;38261;54.090;13.382;2022-10-17T03:52:12;11.90;99.90
52321;DHT22;38261;54.090;13.382;2022-10-17T03:53:34;11.90;99.90
52321;DHT22;38261;54.090;13.382;2022-10-17T03:54:56;11.90;99.90
52321;DHT22;38261;54.090;13.382;2022-10-17T03:56:21;11.90;99.90
52321;DHT22;38261;54.090;13.382;2022-10-17T03:57:43;11.90;99.90
52321;DHT22;38261;54.090;13.382;2022-10-17T03:59:08;11.90;99.90
52321;DHT22;38261;54.090;13.382;2022-10-17T04:00:31;11.90;99.90
52321;DHT22;38261;54.090;13.382;2022-10-17T04:01:54;12.00;99.90
52321;DHT22;38261;54.090;13.382;2022-10-17T04:03:16;11.90;99.90
52321;DHT22;38261;54.090;13.382;2022-10-17T04:04:38;11.90;99.90
52321;DHT22;38261;54.090;13.382;2022-10-17T04:06:01;12.00;99.90
52321;DHT22;38261;54.090;13.382;2022-10-17T04:07:24;12.00;99.90
52321;DHT22;38261;54.090;13.382;2022-10-17T04:08:47;11.90;99.90
52321;DHT22;38261;54.090;13.382;2022-10-17T04:10:09;12.00;99.90
52321;DHT22;38261;54.090;13.382;2022-10-17T04:11:32;12.00;99.90
52321;DHT22;38261;54.090;13.382;2022-10-17T04:12:54;12.10;99.90
52321;DHT22;38261;54.090;13.382;2022-10-17T04:14:16;12.10;99.90
52321;DHT22;38261;54.090;13.382;2022-10-17T04:15:38;12.00;99.90
52321;DHT22;38261;54.090;13.382;2022-10-17T04:17:00;12.10;99.90
52321;DHT22;38261;54.090;13.382;2022-10-17T04:18:22;12.10;99.90
52321;DHT22;38261;54.090;13.382;2022-10-17T04:19:45;12.10;99.90
52321;DHT22;38261;54.090;13.382;2022-10-17T04:21:08;12.00;99.90
52321;DHT22;38261;54.090;13.382;2022-10-17T04:22:30;12.00;99.90
52321;DHT22;38261;54.090;13.382;2022-10-17T04:23:57;12.00;99.90
52321;DHT22;38261;54.090;13.382;2022-10-17T04:25:20;12.10;99.90
52321;DHT22;38261;54.090;13.382;2022-10-17T04:26:42;12.10;99.90
52321;DHT22;38261;54.090;13.382;2022-10-17T04:28:04;12.10;99.90
52321;DHT22;38261;54.090;13.382;2022-10-17T04:29:26;12.10;99.90
52321;DHT22;38261;54.090;13.382;2022-10-17T04:31:04;12.10;99.90
52321;DHT22;38261;54.090;13.382;2022-10-17T04:32:27;12.10;99.90
52321;DHT22;38261;54.090;13.382;2022-10-17T04:33:49;12.10;99.90
52321;DHT22;38261;54.090;13.382;2022-10-17T04:35:11;12.10;99.90
52321;DHT22;38261;54.090;13.382;2022-10-17T04:36:34;12.10;99.90
52321;DHT22;38261;54.090;13.382;2022-10-17T04:37:56;12.10;99.90
52321;DHT22;38261;54.090;13.382;2022-10-17T04:39:18;12.20;99.90
52321;DHT22;38261;54.090;13.382;2022-10-17T04:40:40;12.10;99.90
52321;DHT22;38261;54.090;13.382;2022-10-17T04:42:02;12.20;99.90
52321;DHT22;38261;54.090;13.382;2022-10-17T04:43:24;12.20;99.90
52321;DHT22;38261;54.090;13.382;2022-10-17T04:44:47;12.20;99.90
52321;DHT22;38261;54.090;13.382;2022-10-17T04:46:11;12.20;99.90
52321;DHT22;38261;54.090;13.382;2022-10-17T04:47:34;12.20;99.90
52321;DHT22;38261;54.090;13.382;2022-10-17T04:48:56;12.20;99.90
52321;DHT22;38261;54.090;13.382;2022-10-17T04:50:18;12.20;99.90
52321;DHT22;38261;54.090;13.382;2022-10-17T04:51:40;12.20;99.90
52321;DHT22;38261;54.090;13.382;2022-10-17T04:53:02;12.20;99.90
52321;DHT22;38261;54.090;13.382;2022-10-17T04:54:24;12.20;99.90
52321;DHT22;38261;54.090;13.382;2022-10-17T04:55:47;12.20;99.90
52321;DHT22;38261;54.090;13.382;2022-10-17T04:57:09;12.20;99.90
52321;DHT22;38261;54.090;13.382;2022-10-17T04:58:31;12.20;99.90
52321;DHT22;38261;54.090;13.382;2022-10-17T04:59:53;12.30;99.90
52321;DHT22;38261;54.090;13.382;2022-10-17T05:01:18;12.30;99.90
52321;DHT22;38261;54.090;13.382;2022-10-17T05:02:40;12.30;99.90
52321;DHT22;38261;54.090;13.382;2022-10-17T05:04:02;12.30;99.90
52321;DHT22;38261;54.090;13.382;2022-10-17T05:05:24;12.30;99.90
52321;DHT22;38261;54.090;13.382;2022-10-17T05:06:46;12.30;99.90
52321;DHT22;38261;54.090;13.382;2022-10-17T05:08:09;12.30;99.90
52321;DHT22;38261;54.090;13.382;2022-10-17T05:09:32;12.30;99.90
52321;DHT22;38261;54.090;13.382;2022-10-17T05:10:54;12.30;99.90
52321;DHT22;38261;54.090;13.382;2022-10-17T05:12:16;12.30;99.90
52321;DHT22;38261;54.090;13.382;2022-10-17T05:13:38;12.40;99.90
52321;DHT22;38261;54.090;13.382;2022-10-17T05:15:00;12.40;99.90
52321;DHT22;38261;54.090;13.382;2022-10-17T05:16:22;12.40;99.90
52321;DHT22;38261;54.090;13.382;2022-10-17T05:17:45;12.40;99.90
52321;DHT22;38261;54.090;13.382;2022-10-17T05:19:07;12.50;99.90
52321;DHT22;38261;54.090;13.382;2022-10-17T05:20:29;12.50;99.90
52321;DHT22;38261;54.090;13.382;2022-10-17T05:21:51;12.50;99.90
52321;DHT22;38261;54.090;13.382;2022-10-17T05:23:13;12.50;99.90
52321;DHT22;38261;54.090;13.382;2022-10-17T05:24:35;12.50;99.90
52321;DHT22;38261;54.090;13.382;2022-10-17T05:25:57;12.50;99.90
52321;DHT22;38261;54.090;13.382;2022-10-17T05:27:19;12.50;99.90
52321;DHT22;38261;54.090;13.382;2022-10-17T05:28:42;12.50;99.90
52321;DHT22;38261;54.090;13.382;2022-10-17T05:30:05;12.50;99.90
52321;DHT22;38261;54.090;13.382;2022-10-17T05:31:27;12.60;99.90
52321;DHT22;38261;54.090;13.382;2022-10-17T05:32:53;12.60;99.90
52321;DHT22;38261;54.090;13.382;2022-10-17T05:34:16;12.60;99.90
52321;DHT22;38261;54.090;13.382;2022-10-17T05:35:38;12.50;99.90
52321;DHT22;38261;54.090;13.382;2022-10-17T05:37:00;12.50;99.90
52321;DHT22;38261;54.090;13.382;2022-10-17T05:38:22;12.50;99.90
52321;DHT22;38261;54.090;13.382;2022-10-17T05:39:44;12.50;99.90
52321;DHT22;38261;54.090;13.382;2022-10-17T05:41:12;12.60;99.90
52321;DHT22;38261;54.090;13.382;2022-10-17T05:42:34;12.60;99.90
52321;DHT22;38261;54.090;13.382;2022-10-17T05:43:56;12.60;99.90
52321;DHT22;38261;54.090;13.382;2022-10-17T05:45:22;12.60;99.90
52321;DHT22;38261;54.090;13.382;2022-10-17T05:46:47;12.60;99.90
52321;DHT22;38261;54.090;13.382;2022-10-17T05:48:10;12.70;99.90
52321;DHT22;38261;54.090;13.382;2022-10-17T05:49:32;12.70;99.90
52321;DHT22;38261;54.090;13.382;2022-10-17T05:51:10;12.70;99.90
52321;DHT22;38261;54.090;13.382;2022-10-17T05:52:33;12.70;99.90
52321;DHT22;38261;54.090;13.382;2022-10-17T05:53:55;12.70;99.90
52321;DHT22;38261;54.090;13.382;2022-10-17T05:55:17;12.80;99.90
52321;DHT22;38261;54.090;13.382;2022-10-17T05:56:39;12.80;99.90
52321;DHT22;38261;54.090;13.382;2022-10-17T05:58:03;12.90;99.90
52321;DHT22;38261;54.090;13.382;2022-10-17T05:59:25;12.90;99.90
52321;DHT22;38261;54.090;13.382;2022-10-17T06:00:48;13.00;99.90
52321;DHT22;38261;54.090;13.382;2022-10-17T06:02:11;13.00;99.90
52321;DHT22;38261;54.090;13.382;2022-10-17T06:03:33;13.00;99.90
52321;DHT22;38261;54.090;13.382;2022-10-17T06:04:56;13.10;99.90
52321;DHT22;38261;54.090;13.382;2022-10-17T06:06:18;13.10;99.90
52321;DHT22;38261;54.090;13.382;2022-10-17T06:07:40;13.10;99.90
52321;DHT22;38261;54.090;13.382;2022-10-17T06:09:03;13.20;99.90
52321;DHT22;38261;54.090;13.382;2022-10-17T06:10:25;13.20;99.90
52321;DHT22;38261;54.090;13.382;2022-10-17T06:11:47;13.20;99.90
52321;DHT22;38261;54.090;13.382;2022-10-17T06:13:09;13.30;99.90
52321;DHT22;38261;54.090;13.382;2022-10-17T06:14:32;13.30;99.90
52321;DHT22;38261;54.090;13.382;2022-10-17T06:15:54;13.30;99.90
52321;DHT22;38261;54.090;13.382;2022-10-17T06:17:16;13.40;99.90
52321;DHT22;38261;54.090;13.382;2022-10-17T06:18:38;13.50;99.90
52321;DHT22;38261;54.090;13.382;2022-10-17T06:20:00;13.50;99.90
52321;DHT22;38261;54.090;13.382;2022-10-17T06:21:25;13.50;99.90
52321;DHT22;38261;54.090;13.382;2022-10-17T06:22:47;13.50;99.90
52321;DHT22;38261;54.090;13.382;2022-10-17T06:24:09;13.60;99.90
52321;DHT22;38261;54.090;13.382;2022-10-17T06:25:32;13.60;99.90
52321;DHT22;38261;54.090;13.382;2022-10-17T06:26:54;13.60;99.90
52321;DHT22;38261;54.090;13.382;2022-10-17T06:28:16;13.70;99.90
52321;DHT22;38261;54.090;13.382;2022-10-17T06:29:38;13.80;99.90
52321;DHT22;38261;54.090;13.382;2022-10-17T06:31:11;13.80;99.90
52321;DHT22;38261;54.090;13.382;2022-10-17T06:32:34;13.90;99.90
52321;DHT22;38261;54.090;13.382;2022-10-17T06:33:56;13.90;99.90
52321;DHT22;38261;54.090;13.382;2022-10-17T06:35:18;13.90;99.90
52321;DHT22;38261;54.090;13.382;2022-10-17T06:36:40;14.00;99.90
52321;DHT22;38261;54.090;13.382;2022-10-17T06:38:03;14.00;99.90
52321;DHT22;38261;54.090;13.382;2022-10-17T06:39:25;14.00;99.90
52321;DHT22;38261;54.090;13.382;2022-10-17T06:41:00;14.00;99.90
52321;DHT22;38261;54.090;13.382;2022-10-17T06:42:23;14.00;99.90
52321;DHT22;38261;54.090;13.382;2022-10-17T06:43:46;14.10;99.90
52321;DHT22;38261;54.090;13.382;2022-10-17T06:45:08;14.10;99.90
52321;DHT22;38261;54.090;13.382;2022-10-17T06:46:30;14.20;99.90
52321;DHT22;38261;54.090;13.382;2022-10-17T06:47:53;14.20;99.90
52321;DHT22;38261;54.090;13.382;2022-10-17T06:49:14;14.30;99.90
52321;DHT22;38261;54.090;13.382;2022-10-17T06:50:36;14.30;99.90
52321;DHT22;38261;54.090;13.382;2022-10-17T06:51:59;14.40;99.90
52321;DHT22;38261;54.090;13.382;2022-10-17T06:53:22;14.40;99.90
52321;DHT22;38261;54.090;13.382;2022-10-17T06:54:45;14.40;99.90
52321;DHT22;38261;54.090;13.382;2022-10-17T06:56:09;14.40;99.90
52321;DHT22;38261;54.090;13.382;2022-10-17T06:57:31;14.40;99.90
52321;DHT22;38261;54.090;13.382;2022-10-17T06:58:53;14.40;99.90
52321;DHT22;38261;54.090;13.382;2022-10-17T07:00:15;14.40;99.90
52321;DHT22;38261;54.090;13.382;2022-10-17T07:01:37;14.40;99.90
52321;DHT22;38261;54.090;13.382;2022-10-17T07:03:04;14.40;99.90
52321;DHT22;38261;54.090;13.382;2022-10-17T07:04:26;14.40;99.90
52321;DHT22;38261;54.090;13.382;2022-10-17T07:05:54;14.40;99.90
52321;DHT22;38261;54.090;13.382;2022-10-17T07:07:16;14.40;99.90
52321;DHT22;38261;54.090;13.382;2022-10-17T07:08:42;14.40;99.90
52321;DHT22;38261;54.090;13.382;2022-10-17T07:10:05;14.40;99.90
52321;DHT22;38261;54.090;13.382;2022-10-17T07:11:30;14.40;99.90
52321;DHT22;38261;54.090;13.382;2022-10-17T07:12:53;14.40;99.90
52321;DHT22;38261;54.090;13.382;2022-10-17T07:14:15;14.50;99.90
52321;DHT22;38261;54.090;13.382;2022-10-17T07:15:37;14.60;99.90
52321;DHT22;38261;54.090;13.382;2022-10-17T07:17:00;14.60;99.90
52321;DHT22;38261;54.090;13.382;2022-10-17T07:18:22;14.70;99.90
52321;DHT22;38261;54.090;13.382;2022-10-17T07:19:44;14.80;99.90
52321;DHT22;38261;54.090;13.382;2022-10-17T07:21:07;14.80;99.90
52321;DHT22;38261;54.090;13.382;2022-10-17T07:22:29;14.90;99.90
52321;DHT22;38261;54.090;13.382;2022-10-17T07:23:51;15.00;99.90
52321;DHT22;38261;54.090;13.382;2022-10-17T07:25:13;15.00;99.90
52321;DHT22;38261;54.090;13.382;2022-10-17T07:26:35;15.10;99.90
52321;DHT22;38261;54.090;13.382;2022-10-17T07:27:57;15.10;99.90
52321;DHT22;38261;54.090;13.382;2022-10-17T07:29:20;15.20;99.90
52321;DHT22;38261;54.090;13.382;2022-10-17T07:30:42;15.20;99.90
52321;DHT22;38261;54.090;13.382;2022-10-17T07:32:05;15.30;99.90
52321;DHT22;38261;54.090;13.382;2022-10-17T07:33:29;15.30;99.90
52321;DHT22;38261;54.090;13.382;2022-10-17T07:34:51;15.40;99.90
52321;DHT22;38261;54.090;13.382;2022-10-17T07:36:14;15.40;99.90
52321;DHT22;38261;54.090;13.382;2022-10-17T07:37:36;15.50;99.90
52321;DHT22;38261;54.090;13.382;2022-10-17T07:38:58;15.60;99.90
52321;DHT22;38261;54.090;13.382;2022-10-17T07:40:21;15.60;99.90
52321;DHT22;38261;54.090;13.382;2022-10-17T07:41:43;15.70;99.90
52321;DHT22;38261;54.090;13.382;2022-10-17T07:43:05;15.70;99.90
52321;DHT22;38261;54.090;13.382;2022-10-17T07:44:27;15.80;99.90
52321;DHT22;38261;54.090;13.382;2022-10-17T07:45:50;16.00;99.90
52321;DHT22;38261;54.090;13.382;2022-10-17T07:47:12;16.00;99.90
52321;DHT22;38261;54.090;13.382;2022-10-17T07:48:34;16.10;99.90
52321;DHT22;38261;54.090;13.382;2022-10-17T07:49:56;16.00;99.90
52321;DHT22;38261;54.090;13.382;2022-10-17T07:51:18;16.10;99.90
52321;DHT22;38261;54.090;13.382;2022-10-17T07:52:40;16.10;99.90
52321;DHT22;38261;54.090;13.382;2022-10-17T07:54:04;16.10;99.90
52321;DHT22;38261;54.090;13.382;2022-10-17T07:55:27;16.10;99.90
52321;DHT22;38261;54.090;13.382;2022-10-17T07:56:49;16.10;99.90
52321;DHT22;38261;54.090;13.382;2022-10-17T07:58:12;16.20;99.90
52321;DHT22;38261;54.090;13.382;2022-10-17T07:59:36;16.20;99.90
52321;DHT22;38261;54.090;13.382;2022-10-17T08:01:03;16.40;99.90
52321;DHT22;38261;54.090;13.382;2022-10-17T08:02:29;16.50;99.90
52321;DHT22;38261;54.090;13.382;2022-10-17T08:03:51;16.70;99.90
52321;DHT22;38261;54.090;13.382;2022-10-17T08:05:14;16.90;99.90
52321;DHT22;38261;54.090;13.382;2022-10-17T08:06:36;17.00;99.90
52321;DHT22;38261;54.090;13.382;2022-10-17T08:07:58;17.20;99.90
52321;DHT22;38261;54.090;13.382;2022-10-17T08:09:20;17.30;99.90
52321;DHT22;38261;54.090;13.382;2022-10-17T08:10:42;17.30;99.90
52321;DHT22;38261;54.090;13.382;2022-10-17T08:12:04;17.40;99.90
52321;DHT22;38261;54.090;13.382;2022-10-17T08:13:26;17.40;99.90
52321;DHT22;38261;54.090;13.382;2022-10-17T08:14:48;17.50;99.90
52321;DHT22;38261;54.090;13.382;2022-10-17T08:16:12;17.50;99.90
52321;DHT22;38261;54.090;13.382;2022-10-17T08:17:35;17.50;99.90
52321;DHT22;38261;54.090;13.382;2022-10-17T08:18:57;17.50;99.90
52321;DHT22;38261;54.090;13.382;2022-10-17T08:20:19;17.60;99.90
52321;DHT22;38261;54.090;13.382;2022-10-17T08:21:41;17.60;99.90
52321;DHT22;38261;54.090;13.382;2022-10-17T08:23:05;17.60;99.90
52321;DHT22;38261;54.090;13.382;2022-10-17T08:24:27;17.70;99.90
52321;DHT22;38261;54.090;13.382;2022-10-17T08:25:49;17.70;99.90
52321;DHT22;38261;54.090;13.382;2022-10-17T08:27:12;17.70;99.90
52321;DHT22;38261;54.090;13.382;2022-10-17T08:28:36;17.70;99.90
52321;DHT22;38261;54.090;13.382;2022-10-17T08:29:58;17.70;99.90
52321;DHT22;38261;54.090;13.382;2022-10-17T08:31:20;17.70;99.90
52321;DHT22;38261;54.090;13.382;2022-10-17T08:32:43;17.80;99.90
52321;DHT22;38261;54.090;13.382;2022-10-17T08:34:05;17.80;99.90
52321;DHT22;38261;54.090;13.382;2022-10-17T08:35:27;17.80;99.90
52321;DHT22;38261;54.090;13.382;2022-10-17T08:36:49;17.80;99.90
52321;DHT22;38261;54.090;13.382;2022-10-17T08:38:11;17.80;99.90
52321;DHT22;38261;54.090;13.382;2022-10-17T08:39:34;17.90;99.90
52321;DHT22;38261;54.090;13.382;2022-10-17T08:40:59;18.00;99.90
52321;DHT22;38261;54.090;13.382;2022-10-17T08:47:08;18.20;99.90
52321;DHT22;38261;54.090;13.382;2022-10-17T08:48:35;18.20;99.90
52321;DHT22;38261;54.090;13.382;2022-10-17T08:50:02;18.30;99.90
52321;DHT22;38261;54.090;13.382;2022-10-17T08:51:29;18.40;99.90
52321;DHT22;38261;54.090;13.382;2022-10-17T08:53:12;18.40;99.90
52321;DHT22;38261;54.090;13.382;2022-10-17T08:54:42;18.50;99.90
52321;DHT22;38261;54.090;13.382;2022-10-17T08:56:15;18.60;99.90
52321;DHT22;38261;54.090;13.382;2022-10-17T08:57:47;18.70;99.90
52321;DHT22;38261;54.090;13.382;2022-10-17T08:59:16;18.80;99.90
52321;DHT22;38261;54.090;13.382;2022-10-17T09:00:40;18.80;99.90
52321;DHT22;38261;54.090;13.382;2022-10-17T09:06:17;19.10;99.90
52321;DHT22;38261;54.090;13.382;2022-10-17T09:09:34;19.20;99.90
52321;DHT22;38261;54.090;13.382;2022-10-17T09:11:26;19.30;99.90
52321;DHT22;38261;54.090;13.382;2022-10-17T09:15:35;19.50;99.90
52321;DHT22;38261;54.090;13.382;2022-10-17T09:18:10;19.60;99.90
52321;DHT22;38261;54.090;13.382;2022-10-17T09:19:38;19.60;99.90
52321;DHT22;38261;54.090;13.382;2022-10-17T09:22:46;19.60;99.90
52321;DHT22;38261;54.090;13.382;2022-10-17T09:24:18;19.60;99.90
52321;DHT22;38261;54.090;13.382;2022-10-17T09:25:47;19.70;99.90
52321;DHT22;38261;54.090;13.382;2022-10-17T09:27:24;19.80;99.90
52321;DHT22;38261;54.090;13.382;2022-10-17T09:28:54;19.90;99.90
52321;DHT22;38261;54.090;13.382;2022-10-17T09:31:19;20.00;99.90
52321;DHT22;38261;54.090;13.382;2022-10-17T09:32:23;20.00;99.90
52321;DHT22;38261;54.090;13.382;2022-10-17T09:33:47;20.00;99.90
52321;DHT22;38261;54.090;13.382;2022-10-17T09:35:16;20.00;99.90
52321;DHT22;38261;54.090;13.382;2022-10-17T09:36:39;20.10;99.90